createdAt,value
2018-10-05T00:01:38.867Z,10.87
2018-10-05T00:04:48.022Z,11.03
2018-10-05T00:07:57.314Z,11.30
2018-10-05T00:11:06.762Z,11.17
2018-10-05T00:14:16.048Z,12.33
2018-10-05T00:17:25.583Z,11.57
2018-10-05T00:20:34.881Z,13.43
2018-10-05T00:23:44.050Z,12.17
2018-10-05T00:26:53.498Z,10.93
2018-10-05T00:30:02.806Z,11.97
2018-10-05T00:33:12.163Z,11.30
2018-10-05T00:36:21.402Z,12.73
2018-10-05T00:39:31.165Z,11.43
2018-10-05T00:42:40.331Z,11.40
2018-10-05T00:45:49.578Z,13.00
2018-10-05T00:48:58.759Z,13.40
2018-10-05T00:52:07.982Z,11.17
2018-10-05T00:55:17.098Z,11.43
2018-10-05T00:58:26.227Z,11.97
2018-10-05T01:01:35.708Z,10.97
2018-10-05T01:04:45.686Z,10.93
2018-10-05T01:07:54.835Z,11.27
2018-10-05T01:11:04.106Z,10.77
2018-10-05T01:14:13.366Z,10.83
2018-10-05T01:17:22.589Z,11.10
2018-10-05T01:20:31.886Z,10.10
2018-10-05T01:23:41.018Z,11.20
2018-10-05T01:26:50.453Z,10.20
2018-10-05T01:29:59.830Z,10.83
2018-10-05T01:33:09.166Z,10.30
2018-10-05T01:36:18.443Z,10.87
2018-10-05T01:39:27.779Z,10.47
2018-10-05T01:42:37.002Z,9.87
2018-10-05T01:45:46.105Z,11.70
2018-10-05T01:48:55.521Z,12.83
2018-10-05T01:52:04.760Z,9.00
2018-10-05T01:55:14.117Z,10.13
2018-10-05T01:58:23.254Z,11.33
2018-10-05T02:01:32.977Z,10.20
2018-10-05T02:04:42.330Z,10.20
2018-10-05T02:07:51.645Z,9.33
2018-10-05T02:11:00.790Z,9.57
2018-10-05T02:14:09.911Z,10.33
2018-10-05T02:17:19.055Z,9.67
2018-10-05T02:20:28.468Z,10.80
2018-10-05T02:23:38.314Z,9.60
2018-10-05T02:26:47.664Z,9.80
2018-10-05T02:29:56.817Z,9.83
2018-10-05T02:33:06.130Z,9.13
2018-10-05T02:36:15.383Z,9.67
2018-10-05T02:39:24.608Z,9.63
2018-10-05T02:42:33.927Z,10.00
2018-10-05T02:45:43.173Z,9.50
2018-10-05T02:48:52.391Z,9.27
2018-10-05T02:52:01.718Z,9.53
2018-10-05T02:55:10.978Z,9.47
2018-10-05T02:58:20.204Z,9.77
2018-10-05T03:01:41.085Z,9.70
2018-10-05T03:04:50.365Z,9.53
2018-10-05T03:07:59.571Z,9.80
2018-10-05T03:11:08.912Z,9.33
2018-10-05T03:14:18.038Z,10.37
2018-10-05T03:17:27.275Z,10.07
2018-10-05T03:20:36.567Z,10.27
2018-10-05T03:23:45.795Z,10.70
2018-10-05T03:26:55.176Z,10.40
2018-10-05T03:30:04.522Z,9.60
2018-10-05T03:33:13.850Z,10.57
2018-10-05T03:36:23.024Z,10.43
2018-10-05T03:39:32.194Z,9.77
2018-10-05T03:42:41.313Z,10.33
2018-10-05T03:45:50.506Z,11.33
2018-10-05T03:48:59.695Z,11.87
2018-10-05T03:52:08.913Z,11.00
2018-10-05T03:55:18.070Z,12.63
2018-10-05T03:58:27.436Z,11.87
2018-10-05T04:01:36.638Z,11.43
2018-10-05T04:04:46.821Z,11.67
2018-10-05T04:07:56.189Z,11.13
2018-10-05T04:11:05.458Z,11.93
2018-10-05T04:14:21.605Z,11.53
2018-10-05T04:17:30.949Z,12.03
2018-10-05T04:20:40.283Z,11.43
2018-10-05T04:23:49.571Z,10.73
2018-10-05T04:26:59.261Z,10.77
2018-10-05T04:30:08.661Z,10.23
2018-10-05T04:33:17.813Z,11.37
2018-10-05T04:36:27.114Z,10.93
2018-10-05T04:39:36.346Z,10.87
2018-10-05T04:42:45.548Z,10.80
2018-10-05T04:45:54.771Z,11.03
2018-10-05T04:49:03.949Z,10.90
2018-10-05T04:52:13.360Z,10.77
2018-10-05T04:55:22.548Z,10.80
2018-10-05T04:58:31.671Z,10.03
2018-10-05T05:01:40.932Z,10.70
2018-10-05T05:04:50.286Z,10.23
2018-10-05T05:07:59.490Z,9.20
2018-10-05T05:11:08.798Z,10.83
2018-10-05T05:14:18.221Z,9.43
2018-10-05T05:17:27.479Z,11.00
2018-10-05T05:20:36.705Z,10.13
2018-10-05T05:23:45.864Z,9.20
2018-10-05T05:26:55.261Z,9.67
2018-10-05T05:30:04.755Z,9.57
2018-10-05T05:33:13.877Z,9.13
2018-10-05T05:36:23.099Z,9.60
2018-10-05T05:39:32.336Z,9.70
2018-10-05T05:42:41.544Z,8.97
2018-10-05T05:45:50.785Z,10.47
2018-10-05T05:49:00.052Z,9.47
2018-10-05T05:52:09.437Z,8.87
2018-10-05T05:55:18.674Z,9.00
2018-10-05T05:58:27.827Z,9.70
2018-10-05T06:01:37.237Z,9.33
2018-10-05T06:04:46.634Z,8.80
2018-10-05T06:07:55.907Z,9.30
2018-10-05T06:11:05.054Z,9.03
2018-10-05T06:14:14.233Z,8.93
2018-10-05T06:17:23.376Z,9.53
2018-10-05T06:20:32.544Z,8.43
2018-10-05T06:23:42.040Z,8.30
2018-10-05T06:26:51.151Z,8.23
2018-10-05T06:30:00.463Z,8.63
2018-10-05T06:33:09.942Z,7.57
2018-10-05T06:36:19.307Z,7.90
2018-10-05T06:39:28.478Z,7.00
2018-10-05T06:42:37.746Z,6.63
2018-10-05T06:45:46.828Z,8.13
2018-10-05T06:48:55.978Z,6.70
2018-10-05T06:52:05.289Z,6.83
2018-10-05T06:55:14.908Z,6.03
2018-10-05T06:58:24.149Z,6.58
2018-10-05T07:01:33.471Z,6.62
2018-10-05T07:04:42.556Z,5.75
2018-10-05T07:07:51.915Z,5.60
2018-10-05T07:11:00.939Z,6.10
2018-10-05T07:14:10.268Z,6.08
2018-10-05T07:17:19.596Z,5.45
2018-10-05T07:20:29.122Z,5.75
2018-10-05T07:23:38.418Z,6.00
2018-10-05T07:26:47.897Z,7.33
2018-10-05T07:29:57.104Z,6.42
2018-10-05T07:33:06.371Z,4.85
2018-10-05T07:36:15.585Z,6.28
2018-10-05T07:39:24.875Z,5.25
2018-10-05T07:42:34.095Z,5.65
2018-10-05T07:45:43.368Z,7.03
2018-10-05T07:48:52.630Z,5.92
2018-10-05T07:52:02.064Z,6.03
2018-10-05T07:55:11.508Z,5.55
2018-10-05T07:58:20.673Z,6.47
2018-10-05T08:01:29.939Z,6.08
2018-10-05T08:04:39.309Z,4.37
2018-10-05T08:07:48.551Z,5.20
2018-10-05T08:10:57.822Z,5.30
2018-10-05T08:14:07.097Z,4.30
2018-10-05T08:17:16.418Z,4.78
2018-10-05T08:20:25.514Z,3.70
2018-10-05T08:23:34.710Z,4.67
2018-10-05T08:26:44.142Z,4.87
2018-10-05T08:29:53.448Z,4.62
2018-10-05T08:33:02.725Z,6.00
2018-10-05T08:36:12.069Z,4.87
2018-10-05T08:39:21.277Z,5.10
2018-10-05T08:42:30.509Z,4.05
2018-10-05T08:45:39.676Z,3.77
2018-10-05T08:48:48.919Z,4.20
2018-10-05T08:51:58.268Z,4.92
2018-10-05T08:55:07.617Z,4.22
2018-10-05T08:58:16.963Z,3.45
2018-10-05T09:01:26.297Z,3.47
2018-10-05T09:04:35.493Z,5.35
2018-10-05T09:07:44.655Z,3.87
2018-10-05T09:10:53.978Z,4.28
2018-10-05T09:14:03.418Z,3.60
2018-10-05T09:17:12.622Z,4.75
2018-10-05T09:20:21.863Z,3.45
2018-10-05T09:23:31.076Z,4.05
2018-10-05T09:26:40.197Z,3.90
2018-10-05T09:29:49.536Z,3.00
2018-10-05T09:32:58.882Z,4.92
2018-10-05T09:36:08.326Z,4.45
2018-10-05T09:39:17.699Z,3.98
2018-10-05T09:42:26.938Z,3.22
2018-10-05T09:45:36.334Z,3.77
2018-10-05T09:48:45.552Z,3.25
2018-10-05T09:51:54.834Z,3.08
2018-10-05T09:55:04.006Z,3.17
2018-10-05T09:58:13.285Z,2.90
2018-10-05T10:01:27.850Z,2.70
2018-10-05T10:04:37.146Z,2.60
2018-10-05T10:07:46.428Z,2.87
2018-10-05T10:10:56.152Z,3.37
2018-10-05T10:14:06.081Z,3.05
2018-10-05T10:17:15.245Z,2.90
2018-10-05T10:20:24.442Z,2.67
2018-10-05T10:23:33.563Z,2.90
2018-10-05T10:26:43.004Z,2.95
2018-10-05T10:29:52.538Z,3.40
2018-10-05T10:33:01.986Z,4.03
2018-10-05T10:36:11.283Z,3.17
2018-10-05T10:39:20.535Z,3.30
2018-10-05T10:42:29.880Z,3.20
2018-10-05T10:45:39.080Z,3.90
2018-10-05T10:48:48.291Z,3.20
2018-10-05T10:51:57.459Z,3.87
2018-10-05T10:55:06.675Z,4.10
2018-10-05T10:58:15.814Z,3.90
2018-10-05T11:01:25.101Z,4.67
2018-10-05T11:04:34.522Z,3.60
2018-10-05T11:07:43.772Z,4.10
2018-10-05T11:10:53.134Z,4.97
2018-10-05T11:14:02.317Z,4.20
2018-10-05T11:17:11.596Z,10.73
2018-10-05T11:20:20.678Z,4.83
2018-10-05T11:23:30.192Z,5.87
2018-10-05T11:26:39.307Z,5.13
2018-10-05T11:29:48.650Z,4.70
2018-10-05T11:32:57.912Z,4.07
2018-10-05T11:36:07.331Z,4.50
2018-10-05T11:39:16.455Z,5.30
2018-10-05T11:42:25.679Z,4.70
2018-10-05T11:45:35.184Z,4.30
2018-10-05T11:48:44.481Z,4.93
2018-10-05T11:51:53.579Z,4.43
2018-10-05T11:55:02.789Z,4.50
2018-10-05T11:58:12.145Z,3.77
2018-10-05T12:01:21.977Z,3.47
2018-10-05T12:04:31.424Z,3.90
2018-10-05T12:07:40.850Z,4.23
2018-10-05T12:10:50.172Z,3.93
2018-10-05T12:13:59.567Z,4.67
2018-10-05T12:17:08.767Z,3.75
2018-10-05T12:20:17.943Z,5.30
2018-10-05T12:23:27.075Z,3.95
2018-10-05T12:26:36.470Z,4.22
2018-10-05T12:29:45.689Z,3.77
2018-10-05T12:32:55.034Z,4.17
2018-10-05T12:36:04.554Z,3.93
2018-10-05T12:39:13.843Z,4.58
2018-10-05T12:42:23.124Z,3.57
2018-10-05T12:45:32.394Z,4.70
2018-10-05T12:48:41.865Z,4.80
2018-10-05T12:51:51.235Z,4.17
2018-10-05T12:55:00.461Z,4.90
2018-10-05T12:58:09.919Z,4.00
2018-10-05T13:01:19.275Z,6.10
2018-10-05T13:04:28.687Z,4.43
2018-10-05T13:07:38.265Z,4.93
2018-10-05T13:10:48.359Z,4.60
2018-10-05T13:13:57.667Z,3.87
2018-10-05T13:17:06.789Z,4.62
2018-10-05T13:20:16.165Z,4.77
2018-10-05T13:23:25.482Z,4.00
2018-10-05T13:26:35.016Z,4.30
2018-10-05T13:29:44.377Z,5.35
2018-10-05T13:32:53.687Z,4.78
2018-10-05T13:36:02.982Z,3.97
2018-10-05T13:39:12.715Z,4.50
2018-10-05T13:42:21.795Z,4.87
2018-10-05T13:45:31.127Z,4.50
2018-10-05T13:48:40.468Z,4.27
2018-10-05T13:51:49.647Z,4.67
2018-10-05T13:54:58.874Z,4.10
2018-10-05T13:58:08.246Z,3.93
2018-10-05T14:01:17.911Z,4.17
2018-10-05T14:04:27.416Z,4.20
2018-10-05T14:07:36.613Z,4.50
2018-10-05T14:10:45.864Z,5.07
2018-10-05T14:13:55.206Z,4.58
2018-10-05T14:17:04.326Z,4.80
2018-10-05T14:20:13.775Z,4.90
2018-10-05T14:23:23.264Z,5.45
2018-10-05T14:26:32.386Z,4.10
2018-10-05T14:29:41.673Z,4.60
2018-10-05T14:32:51.217Z,4.83
2018-10-05T14:36:00.403Z,4.83
2018-10-05T14:39:09.886Z,5.20
2018-10-05T14:42:19.176Z,5.70
2018-10-05T14:45:28.474Z,4.80
2018-10-05T14:48:37.655Z,4.90
2018-10-05T14:51:46.979Z,4.27
2018-10-05T14:54:56.624Z,5.37
2018-10-05T14:58:05.786Z,6.30
2018-10-05T15:01:15.213Z,5.17
2018-10-05T15:04:24.428Z,4.40
2018-10-05T15:07:33.966Z,4.70
2018-10-05T15:10:43.294Z,4.43
2018-10-05T15:13:52.583Z,6.00
2018-10-05T15:17:01.876Z,4.77
2018-10-05T15:20:11.112Z,6.23
2018-10-05T15:23:20.428Z,5.50
2018-10-05T15:26:29.687Z,5.53
2018-10-05T15:29:38.922Z,4.53
2018-10-05T15:32:48.193Z,4.80
2018-10-05T15:35:57.414Z,3.87
2018-10-05T15:39:07.806Z,5.40
2018-10-05T15:42:17.058Z,5.20
2018-10-05T15:45:26.459Z,4.77
2018-10-05T15:48:36.098Z,4.00
2018-10-05T15:51:45.229Z,7.60
2018-10-05T15:54:54.723Z,6.53
2018-10-05T15:58:04.371Z,5.43
2018-10-05T16:01:14.138Z,4.87
2018-10-05T16:04:23.345Z,7.17
2018-10-05T16:07:32.643Z,7.40
2018-10-05T16:10:42.523Z,5.57
2018-10-05T16:13:51.914Z,7.87
2018-10-05T16:17:01.348Z,6.27
2018-10-05T16:20:10.808Z,8.03
2018-10-05T16:23:20.568Z,9.17
2018-10-05T16:26:29.786Z,9.73
2018-10-05T16:29:39.160Z,6.40
2018-10-05T16:32:48.439Z,6.17
2018-10-05T16:35:57.681Z,5.60
2018-10-05T16:39:08.459Z,5.20
2018-10-05T16:42:17.735Z,6.33
2018-10-05T16:45:26.906Z,5.67
2018-10-05T16:48:36.218Z,7.60
2018-10-05T16:51:45.513Z,6.83
2018-10-05T16:54:54.678Z,6.87
2018-10-05T16:58:03.982Z,7.90
2018-10-05T17:01:13.463Z,6.17
2018-10-05T17:04:22.774Z,6.17
2018-10-05T17:07:32.114Z,6.47
2018-10-05T17:10:41.418Z,7.33
2018-10-05T17:13:50.501Z,6.10
2018-10-05T17:16:59.878Z,25.77
2018-10-05T17:20:08.928Z,5.17
2018-10-05T17:23:18.126Z,7.27
2018-10-05T17:26:27.679Z,5.47
2018-10-05T17:29:36.830Z,4.90
2018-10-05T17:32:46.187Z,5.03
2018-10-05T17:35:55.292Z,6.10
2018-10-05T17:39:07.485Z,5.80
2018-10-05T17:42:16.706Z,5.80
2018-10-05T17:45:26.100Z,5.73
2018-10-05T17:48:35.540Z,6.50
2018-10-05T17:51:45.120Z,6.17
2018-10-05T17:54:54.816Z,6.60
2018-10-05T17:58:04.198Z,7.40
2018-10-05T18:01:13.626Z,7.97
2018-10-05T18:04:23.121Z,7.57
2018-10-05T18:07:32.465Z,6.93
2018-10-05T18:10:41.750Z,7.17
2018-10-05T18:13:51.399Z,7.47
2018-10-05T18:17:00.776Z,7.57
2018-10-05T18:20:10.546Z,8.47
2018-10-05T18:23:19.738Z,9.30
2018-10-05T18:26:29.092Z,11.63
2018-10-05T18:29:38.639Z,9.77
2018-10-05T18:32:47.927Z,8.80
2018-10-05T18:35:57.130Z,10.87
2018-10-05T18:39:08.096Z,9.63
2018-10-05T18:42:17.309Z,10.87
2018-10-05T18:45:26.424Z,8.40
2018-10-05T18:48:36.291Z,8.77
2018-10-05T18:51:45.780Z,13.73
2018-10-05T18:54:55.105Z,8.90
2018-10-05T18:58:04.446Z,9.47
2018-10-05T19:01:13.930Z,9.30
2018-10-05T19:04:23.265Z,10.30
2018-10-05T19:07:32.480Z,9.53
2018-10-05T19:10:42.207Z,10.57
2018-10-05T19:13:51.462Z,9.77
2018-10-05T19:17:00.929Z,9.00
2018-10-05T19:20:10.264Z,9.57
2018-10-05T19:23:19.459Z,9.87
2018-10-05T19:26:28.852Z,10.43
2018-10-05T19:29:38.210Z,10.17
2018-10-05T19:32:47.842Z,10.33
2018-10-05T19:35:57.281Z,9.80
2018-10-05T19:39:08.283Z,10.40
2018-10-05T19:42:17.423Z,9.63
2018-10-05T19:45:26.639Z,9.53
2018-10-05T19:48:35.878Z,9.30
2018-10-05T19:51:45.105Z,9.73
2018-10-05T19:54:54.538Z,10.17
2018-10-05T19:58:03.878Z,10.23
2018-10-05T20:01:13.172Z,9.97
2018-10-05T20:04:22.385Z,9.90
2018-10-05T20:07:31.602Z,10.17
2018-10-05T20:10:40.940Z,10.83
2018-10-05T20:13:50.257Z,9.43
2018-10-05T20:16:59.442Z,9.87
2018-10-05T20:20:08.744Z,9.53
2018-10-05T20:23:17.800Z,9.63
2018-10-05T20:26:27.107Z,11.13
2018-10-05T20:29:36.578Z,10.47
2018-10-05T20:32:45.762Z,10.03
2018-10-05T20:35:55.214Z,10.00
2018-10-05T20:39:05.978Z,9.20
2018-10-05T20:42:15.073Z,9.53
2018-10-05T20:45:24.145Z,10.50
2018-10-05T20:48:33.469Z,10.57
2018-10-05T20:51:42.610Z,10.10
2018-10-05T20:54:51.714Z,10.13
2018-10-05T20:58:01.116Z,11.33
2018-10-05T21:01:10.307Z,10.87
2018-10-05T21:04:19.558Z,9.57
2018-10-05T21:07:28.802Z,9.87
2018-10-05T21:10:37.986Z,10.53
2018-10-05T21:13:47.450Z,10.87
2018-10-05T21:16:56.602Z,9.83
2018-10-05T21:20:05.989Z,10.23
2018-10-05T21:23:15.307Z,10.10
2018-10-05T21:26:24.664Z,11.67
2018-10-05T21:29:34.018Z,11.60
2018-10-05T21:32:43.406Z,11.17
2018-10-05T21:35:52.798Z,10.67
2018-10-05T21:39:02.461Z,10.97
2018-10-05T21:42:11.694Z,12.50
2018-10-05T21:45:21.115Z,9.80
2018-10-05T21:48:30.599Z,11.40
2018-10-05T21:51:39.961Z,11.50
2018-10-05T21:54:49.281Z,12.20
2018-10-05T21:57:58.941Z,11.87
2018-10-05T22:01:08.325Z,10.27
2018-10-05T22:04:17.547Z,11.10
2018-10-05T22:07:26.767Z,10.23
2018-10-05T22:10:35.877Z,10.83
2018-10-05T22:13:45.336Z,11.03
2018-10-05T22:16:54.655Z,10.73
2018-10-05T22:20:03.990Z,10.90
2018-10-05T22:23:13.147Z,10.40
2018-10-05T22:26:22.283Z,12.23
2018-10-05T22:29:31.610Z,11.43
2018-10-05T22:32:41.027Z,11.67
2018-10-05T22:35:50.154Z,10.90
2018-10-05T22:38:59.305Z,10.83
2018-10-05T22:42:08.648Z,10.63
2018-10-05T22:45:17.915Z,11.93
2018-10-05T22:48:27.248Z,17.23
2018-10-05T22:51:36.585Z,12.77
2018-10-05T22:54:45.875Z,11.07
2018-10-05T22:57:55.173Z,11.30
2018-10-05T23:01:04.455Z,11.83
2018-10-05T23:04:13.846Z,12.63
2018-10-05T23:07:22.937Z,12.30
2018-10-05T23:10:32.146Z,12.30
2018-10-05T23:13:41.509Z,11.73
2018-10-05T23:16:50.762Z,11.60
2018-10-05T23:20:00.170Z,10.03
2018-10-05T23:23:10.025Z,10.80
2018-10-05T23:26:19.187Z,10.10
2018-10-05T23:29:28.457Z,9.83
2018-10-05T23:32:37.781Z,9.80
2018-10-05T23:35:47.246Z,10.13
2018-10-05T23:38:56.541Z,10.47
2018-10-05T23:42:05.714Z,12.00
2018-10-05T23:45:15.080Z,11.77
2018-10-05T23:48:24.695Z,9.40
2018-10-05T23:51:34.184Z,9.57
2018-10-05T23:54:43.422Z,11.17
2018-10-05T23:57:52.768Z,10.13
